Time;durP1;ratioP1;P1;durP2;ratioP2;P2;SDS_P1;SDS_P2;PMS_P1;PMS_P2;Temp;Humidity;BMP_temperature;BMP_pressure;BME280_temperature;BME280_humidity;BME280_pressure;Samples;Min_cycle;Max_cycle;Signal;HPM_P1;HPM_P2
2021/01/29 00:01:26;;;;;;;7.15;2.17;;;1.10;99.90;;;;;;4964936;28;20379;-74
2021/01/29 00:03:52;;;;;;;2.75;1.60;;;1.10;99.90;;;;;;4968394;28;20038;-75
2021/01/29 00:06:17;;;;;;;5.15;1.85;;;1.10;99.90;;;;;;4969855;28;20429;-75
2021/01/29 00:08:43;;;;;;;3.13;1.80;;;1.10;99.90;;;;;;4971406;28;20118;-75
2021/01/29 00:11:08;;;;;;;2.85;1.98;;;1.00;99.90;;;;;;4966890;28;20030;-75
2021/01/29 00:13:34;;;;;;;5.95;1.58;;;1.10;99.90;;;;;;4965378;28;20678;-75
2021/01/29 00:15:59;;;;;;;3.35;1.98;;;1.00;99.90;;;;;;4968200;28;20424;-75
2021/01/29 00:18:25;;;;;;;5.47;1.80;;;1.00;99.90;;;;;;4967930;28;20027;-75
2021/01/29 00:20:51;;;;;;;3.88;1.92;;;1.00;99.90;;;;;;4963843;28;20030;-75
2021/01/29 00:23:18;;;;;;;5.28;1.75;;;1.00;99.90;;;;;;4967754;28;20462;-75
2021/01/29 00:25:48;;;;;;;3.13;1.75;;;1.10;99.90;;;;;;4969178;28;20031;-75
2021/01/29 00:28:15;;;;;;;3.55;2.00;;;1.10;99.90;;;;;;4968908;28;20054;-76
2021/01/29 00:30:41;;;;;;;3.17;1.90;;;1.10;99.90;;;;;;4963232;28;20039;-75
2021/01/29 00:33:10;;;;;;;5.10;2.28;;;1.20;99.90;;;;;;4960518;28;20113;-75
2021/01/29 00:35:38;;;;;;;3.22;2.00;;;1.20;99.90;;;;;;4971026;28;20062;-75
2021/01/29 00:38:05;;;;;;;3.13;1.67;;;1.10;99.90;;;;;;4969294;28;20026;-75
2021/01/29 00:40:31;;;;;;;4.43;1.90;;;1.10;99.90;;;;;;4964748;28;20456;-75
2021/01/29 00:42:56;;;;;;;3.03;1.77;;;1.10;99.90;;;;;;4968292;28;20051;-75
2021/01/29 00:45:25;;;;;;;3.10;1.73;;;1.20;99.90;;;;;;4965413;28;20473;-75
2021/01/29 00:47:51;;;;;;;4.25;1.75;;;1.20;99.90;;;;;;4965619;28;20418;-75
2021/01/29 00:50:17;;;;;;;5.20;1.73;;;1.10;99.90;;;;;;4968073;28;20061;-75
2021/01/29 00:52:42;;;;;;;3.42;1.60;;;1.20;99.90;;;;;;4965236;28;20034;-75
2021/01/29 00:55:09;;;;;;;4.60;1.60;;;1.00;99.90;;;;;;4964895;28;20027;-75
2021/01/29 00:57:34;;;;;;;6.93;2.00;;;1.20;99.90;;;;;;4966469;28;20035;-75
2021/01/29 01:00:00;;;;;;;3.97;2.00;;;1.10;99.90;;;;;;4958151;28;20027;-75
2021/01/29 01:02:25;;;;;;;3.60;1.77;;;1.20;99.90;;;;;;4968178;28;20033;-74
2021/01/29 01:04:51;;;;;;;4.30;1.70;;;1.30;99.90;;;;;;4962247;28;20033;-75
2021/01/29 01:07:17;;;;;;;4.15;1.73;;;1.20;99.90;;;;;;4959571;28;20722;-75
2021/01/29 01:09:43;;;;;;;2.95;1.55;;;1.20;99.90;;;;;;4960636;28;20053;-74
2021/01/29 01:12:09;;;;;;;3.13;1.70;;;1.10;99.90;;;;;;4962064;28;20043;-74
2021/01/29 01:14:35;;;;;;;7.22;1.73;;;1.10;99.90;;;;;;4968138;28;20030;-75
2021/01/29 01:17:00;;;;;;;4.28;1.95;;;1.20;99.90;;;;;;4966868;28;20050;-75
2021/01/29 01:19:26;;;;;;;2.45;1.60;;;1.20;99.90;;;;;;4957765;28;20062;-75
2021/01/29 01:21:51;;;;;;;3.13;1.65;;;1.20;99.90;;;;;;4966379;28;20030;-75
2021/01/29 01:24:17;;;;;;;2.85;1.92;;;1.20;99.90;;;;;;4960438;28;20054;-75
2021/01/29 01:26:42;;;;;;;4.15;1.75;;;1.20;99.90;;;;;;4966370;28;20027;-75
2021/01/29 01:29:08;;;;;;;4.05;1.90;;;1.20;99.90;;;;;;4966319;28;20524;-75
2021/01/29 01:31:33;;;;;;;7.85;1.80;;;1.30;99.90;;;;;;4968878;28;20035;-75
2021/01/29 01:33:59;;;;;;;7.65;2.20;;;1.30;99.90;;;;;;4957723;28;20060;-75
2021/01/29 01:36:24;;;;;;;4.13;1.77;;;1.40;99.90;;;;;;4980125;28;20054;-75
2021/01/29 01:38:50;;;;;;;5.82;2.30;;;1.30;99.90;;;;;;4968470;28;20042;-75
2021/01/29 01:41:15;;;;;;;3.83;2.03;;;1.20;99.90;;;;;;4962464;28;20041;-75
2021/01/29 01:43:41;;;;;;;6.07;2.42;;;1.20;99.90;;;;;;4966617;28;20031;-75
2021/01/29 01:46:12;;;;;;;3.80;2.05;;;1.20;99.90;;;;;;4968822;28;20524;-74
2021/01/29 01:48:52;;;;;;;3.15;1.60;;;1.40;99.90;;;;;;4964659;28;20046;-75
2021/01/29 01:51:36;;;;;;;3.60;1.60;;;1.20;99.90;;;;;;4965415;28;20030;-74
2021/01/29 01:54:21;;;;;;;5.30;1.73;;;1.30;99.90;;;;;;4966197;28;20161;-75
2021/01/29 01:56:52;;;;;;;3.20;1.70;;;1.20;99.90;;;;;;4964786;28;20031;-75
2021/01/29 01:59:22;;;;;;;2.08;1.60;;;1.20;99.90;;;;;;4965637;28;20031;-75
2021/01/29 02:01:53;;;;;;;4.40;1.60;;;1.30;99.90;;;;;;4967753;28;20046;-75
2021/01/29 02:04:23;;;;;;;5.57;1.92;;;1.40;99.90;;;;;;4967843;28;20082;-75
2021/01/29 02:07:12;;;;;;;4.45;1.60;;;1.30;99.90;;;;;;4962771;28;20023;-75
2021/01/29 02:09:41;;;;;;;3.88;1.67;;;1.30;99.90;;;;;;4954148;28;20038;-75
2021/01/29 02:12:07;;;;;;;3.55;1.55;;;1.30;99.90;;;;;;4963740;28;20027;-75
2021/01/29 02:14:32;;;;;;;3.95;1.77;;;1.20;99.90;;;;;;4966371;28;20129;-75
2021/01/29 02:17:04;;;;;;;3.10;1.52;;;1.30;99.90;;;;;;4958635;28;20482;-76
2021/01/29 02:20:07;;;;;;;2.05;1.52;;;1.30;99.90;;;;;;4968267;28;20493;-75
2021/01/29 02:22:33;;;;;;;2.80;1.67;;;1.30;99.90;;;;;;4967486;28;20062;-75
2021/01/29 02:25:29;;;;;;;5.60;1.85;;;1.30;99.90;;;;;;4970651;28;20074;-75
2021/01/29 02:27:57;;;;;;;1.38;1.13;;;1.20;99.90;;;;;;4964909;28;20024;-75
2021/01/29 02:30:44;;;;;;;4.18;1.58;;;1.30;99.90;;;;;;4965787;28;20026;-75
2021/01/29 02:33:53;;;;;;;4.30;1.85;;;1.30;99.90;;;;;;4968576;28;20061;-75
2021/01/29 02:36:48;;;;;;;3.05;1.60;;;1.30;99.90;;;;;;4968790;28;20035;-75
2021/01/29 02:39:23;;;;;;;7.88;1.30;;;1.20;99.90;;;;;;4969134;28;20030;-75
2021/01/29 02:42:17;;;;;;;3.25;1.88;;;1.30;99.90;;;;;;4966470;28;20437;-75
2021/01/29 02:45:04;;;;;;;4.45;1.52;;;1.20;99.90;;;;;;4960647;28;20035;-75
2021/01/29 02:47:36;;;;;;;2.25;1.45;;;1.20;99.90;;;;;;4967420;28;20510;-75
2021/01/29 02:50:05;;;;;;;5.95;1.70;;;1.30;99.90;;;;;;4968610;28;20151;-74
2021/01/29 02:52:40;;;;;;;3.67;1.75;;;1.30;99.90;;;;;;4967411;28;20039;-74
2021/01/29 02:55:06;;;;;;;3.60;2.00;;;1.20;99.90;;;;;;4970020;28;20057;-75
2021/01/29 02:57:54;;;;;;;7.00;1.60;;;1.10;99.90;;;;;;4970816;28;20047;-75
2021/01/29 03:00:28;;;;;;;2.97;1.80;;;1.10;99.90;;;;;;4968004;28;20066;-75
2021/01/29 03:03:06;;;;;;;4.20;1.80;;;1.10;99.90;;;;;;4969142;28;20031;-75
2021/01/29 03:05:38;;;;;;;2.20;1.50;;;1.10;99.90;;;;;;4967851;28;20026;-75
2021/01/29 03:08:10;;;;;;;2.47;1.70;;;1.20;99.90;;;;;;4971016;28;20438;-75
2021/01/29 03:11:01;;;;;;;4.80;1.80;;;1.20;99.90;;;;;;4967498;28;20476;-75
2021/01/29 03:13:33;;;;;;;3.30;1.90;;;1.20;99.90;;;;;;4969453;28;20092;-75
2021/01/29 03:16:09;;;;;;;4.03;1.80;;;1.30;99.90;;;;;;4969403;28;20074;-75
2021/01/29 03:18:58;;;;;;;3.40;1.63;;;1.40;99.90;;;;;;4959763;28;20047;-75
2021/01/29 03:21:30;;;;;;;4.57;1.77;;;1.40;99.90;;;;;;4957822;28;20031;-75
2021/01/29 03:24:00;;;;;;;2.65;1.70;;;1.30;99.90;;;;;;4959447;28;20130;-75
2021/01/29 03:26:30;;;;;;;4.90;1.70;;;1.30;99.90;;;;;;4968175;28;20150;-75
2021/01/29 03:28:59;;;;;;;4.35;1.90;;;1.30;99.90;;;;;;4965565;28;20045;-75
2021/01/29 03:31:28;;;;;;;4.22;1.92;;;1.20;99.90;;;;;;4968271;28;20034;-75
2021/01/29 03:34:05;;;;;;;4.90;1.67;;;1.20;99.90;;;;;;4972270;28;20031;-75
2021/01/29 03:36:41;;;;;;;5.10;2.03;;;1.10;99.90;;;;;;4961328;28;20154;-75
2021/01/29 03:39:13;;;;;;;4.05;2.08;;;1.00;99.90;;;;;;4970038;28;20073;-75
2021/01/29 03:41:43;;;;;;;3.15;1.88;;;1.00;99.90;;;;;;4967014;28;20053;-75
2021/01/29 03:44:26;;;;;;;4.63;1.80;;;1.00;99.90;;;;;;4965284;28;20118;-76
2021/01/29 03:47:08;;;;;;;6.72;2.10;;;0.90;99.90;;;;;;4969856;28;20041;-75
2021/01/29 03:49:46;;;;;;;5.60;1.83;;;1.00;99.90;;;;;;4969090;28;20270;-75
2021/01/29 03:52:27;;;;;;;3.28;1.80;;;0.90;99.90;;;;;;4963441;28;20038;-75
2021/01/29 03:55:01;;;;;;;6.57;1.55;;;0.80;99.90;;;;;;4967526;28;20038;-75
2021/01/29 03:57:55;;;;;;;6.97;1.70;;;0.90;99.90;;;;;;4971348;28;20031;-75
2021/01/29 04:00:34;;;;;;;3.17;1.98;;;0.80;99.90;;;;;;4964832;28;20039;-75
2021/01/29 04:03:33;;;;;;;4.88;2.10;;;0.80;99.90;;;;;;4966490;28;20029;-75
2021/01/29 04:06:10;;;;;;;8.43;1.98;;;0.70;99.90;;;;;;4971075;28;20033;-75
2021/01/29 04:09:00;;;;;;;2.47;1.70;;;0.80;99.90;;;;;;4965672;28;20549;-75
2021/01/29 04:11:46;;;;;;;3.33;1.90;;;0.80;99.90;;;;;;4961864;28;20038;-75
2021/01/29 04:14:18;;;;;;;3.55;1.77;;;0.80;99.90;;;;;;4959106;28;20170;-75
2021/01/29 04:16:47;;;;;;;5.90;2.30;;;0.70;99.90;;;;;;4963906;28;20031;-75
2021/01/29 04:19:17;;;;;;;5.05;2.08;;;0.70;99.90;;;;;;4959441;28;20122;-76
2021/01/29 04:21:53;;;;;;;5.28;2.33;;;0.70;99.90;;;;;;4969016;28;20154;-76
2021/01/29 04:24:25;;;;;;;5.78;2.22;;;0.70;99.90;;;;;;4967941;28;20414;-75
2021/01/29 04:27:04;;;;;;;3.90;1.63;;;0.60;99.90;;;;;;4967413;28;20030;-75
2021/01/29 04:29:35;;;;;;;3.00;2.22;;;0.70;99.90;;;;;;4967356;28;20035;-75
2021/01/29 04:32:05;;;;;;;3.40;1.98;;;0.70;99.90;;;;;;4956121;28;20058;-75
2021/01/29 04:34:34;;;;;;;2.70;1.85;;;0.60;99.90;;;;;;4970075;28;20140;-76
2021/01/29 04:37:05;;;;;;;5.13;1.90;;;0.50;99.90;;;;;;4977050;28;20551;-75
2021/01/29 04:39:36;;;;;;;2.90;2.10;;;0.60;99.90;;;;;;4965153;28;20585;-75
2021/01/29 04:42:35;;;;;;;5.95;2.33;;;0.70;99.90;;;;;;4965732;28;20286;-76
2021/01/29 04:45:24;;;;;;;3.65;2.00;;;0.60;99.90;;;;;;4969159;28;20031;-75
2021/01/29 04:48:16;;;;;;;4.95;1.95;;;0.60;99.90;;;;;;4968265;28;20027;-75
2021/01/29 04:51:17;;;;;;;5.78;2.22;;;0.60;99.90;;;;;;4957252;28;20568;-75
2021/01/29 04:54:14;;;;;;;3.35;1.90;;;0.50;99.90;;;;;;4968392;28;20402;-75
2021/01/29 04:56:51;;;;;;;2.58;1.80;;;0.50;99.90;;;;;;4966788;28;20035;-75
2021/01/29 04:59:42;;;;;;;3.17;1.90;;;0.50;99.90;;;;;;4959033;28;20066;-75
2021/01/29 05:02:27;;;;;;;;;;;0.60;99.90;;;;;;4959893;28;20038;-76
2021/01/29 05:05:36;;;;;;;2.35;1.80;;;0.60;99.90;;;;;;4963199;28;19916;-75
2021/01/29 05:08:40;;;;;;;3.50;2.10;;;0.50;99.90;;;;;;4957384;28;20033;-75
2021/01/29 05:11:43;;;;;;;6.32;1.98;;;0.40;99.90;;;;;;4961308;28;20053;-75
2021/01/29 05:14:46;;;;;;;2.97;2.25;;;0.40;99.90;;;;;;4966901;28;20034;-75
2021/01/29 05:17:45;;;;;;;5.03;2.30;;;0.40;99.90;;;;;;4958358;28;20022;-75
2021/01/29 05:20:56;;;;;;;4.70;2.20;;;0.40;99.90;;;;;;4959861;28;20028;-75
2021/01/29 05:24:01;;;;;;;2.97;2.20;;;0.40;99.90;;;;;;4964482;28;20038;-75
2021/01/29 05:26:57;;;;;;;4.50;2.13;;;0.60;99.90;;;;;;4955130;28;20046;-75
2021/01/29 05:29:51;;;;;;;5.95;1.88;;;0.70;99.90;;;;;;4964975;28;20049;-75
2021/01/29 05:32:52;;;;;;;6.50;2.25;;;0.70;99.90;;;;;;4968229;28;20045;-75
2021/01/29 05:35:31;;;;;;;2.40;1.98;;;0.60;99.90;;;;;;4977608;28;20089;-75
2021/01/29 05:38:11;;;;;;;3.58;2.20;;;0.70;99.90;;;;;;4967150;28;20474;-75
2021/01/29 05:40:55;;;;;;;5.72;2.30;;;0.70;99.90;;;;;;4969591;28;20038;-75
2021/01/29 05:44:01;;;;;;;9.15;2.30;;;0.60;99.90;;;;;;4962030;28;20027;-75
2021/01/29 05:46:34;;;;;;;5.80;2.40;;;0.50;99.90;;;;;;4968493;28;20027;-74
2021/01/29 05:49:20;;;;;;;5.40;2.53;;;0.60;99.90;;;;;;4958194;28;20499;-74
2021/01/29 05:51:59;;;;;;;3.95;1.95;;;0.70;99.90;;;;;;4966295;28;20031;-75
2021/01/29 05:54:58;;;;;;;8.52;2.13;;;0.60;99.90;;;;;;4966380;28;20106;-75
2021/01/29 05:57:40;;;;;;;4.55;2.30;;;0.60;99.90;;;;;;4956588;28;20114;-74
2021/01/29 06:00:17;;;;;;;5.10;2.47;;;0.60;99.90;;;;;;4967847;28;20027;-76
2021/01/29 06:02:58;;;;;;;6.63;2.20;;;0.50;99.90;;;;;;4963184;28;20494;-73
2021/01/29 06:06:01;;;;;;;5.88;2.63;;;0.50;99.90;;;;;;4960971;28;20035;-74
2021/01/29 06:08:50;;;;;;;4.35;2.40;;;0.60;99.90;;;;;;4971270;28;20113;-74
2021/01/29 06:11:30;;;;;;;4.95;2.50;;;0.60;99.90;;;;;;4966115;28;20034;-74
2021/01/29 06:14:18;;;;;;;6.22;2.42;;;0.50;99.90;;;;;;4963752;28;20540;-74
2021/01/29 06:17:17;;;;;;;4.55;2.20;;;0.40;99.90;;;;;;4972083;28;20037;-73
2021/01/29 06:19:50;;;;;;;3.88;2.35;;;0.50;99.90;;;;;;4955914;28;20123;-74
2021/01/29 06:22:42;;;;;;;4.70;2.50;;;0.40;99.90;;;;;;4969365;28;20118;-74
2021/01/29 06:25:25;;;;;;;3.63;2.33;;;0.30;99.90;;;;;;4964195;28;20417;-74
2021/01/29 06:28:05;;;;;;;6.28;2.30;;;0.40;99.90;;;;;;4959256;28;20035;-74
2021/01/29 06:30:40;;;;;;;4.37;2.47;;;0.40;99.90;;;;;;4959619;28;20133;-76
2021/01/29 06:33:49;;;;;;;9.13;2.25;;;0.60;99.90;;;;;;4971317;28;20409;-76
2021/01/29 06:36:39;;;;;;;4.93;2.40;;;0.60;99.90;;;;;;4969227;28;20055;-89
2021/01/29 06:39:30;;;;;;;4.07;2.30;;;0.40;99.90;;;;;;4969712;28;20034;-83
2021/01/29 06:42:14;;;;;;;6.18;3.13;;;0.40;99.90;;;;;;4968827;28;20074;-85
2021/01/29 06:45:09;;;;;;;5.65;3.20;;;0.60;99.90;;;;;;4973684;28;20406;-92
2021/01/29 06:47:53;;;;;;;8.57;3.45;;;0.70;99.90;;;;;;4973256;28;20118;-92
2021/01/29 06:50:43;;;;;;;11.68;2.95;;;0.80;99.90;;;;;;4961948;28;20058;-88
2021/01/29 06:53:46;;;;;;;7.07;2.90;;;0.90;99.90;;;;;;4961436;28;20031;-86
2021/01/29 06:56:42;;;;;;;5.70;3.05;;;0.90;99.90;;;;;;4972622;28;20030;-81
2021/01/29 06:59:13;;;;;;;3.58;2.28;;;1.00;99.90;;;;;;4965037;28;20073;-79
2021/01/29 07:02:19;;;;;;;4.93;2.45;;;1.00;99.90;;;;;;4966491;28;20430;-79
2021/01/29 07:05:10;;;;;;;6.50;1.98;;;1.00;99.90;;;;;;4970471;28;20035;-80
2021/01/29 07:08:02;;;;;;;6.63;2.25;;;1.10;99.90;;;;;;4963225;28;20128;-79
2021/01/29 07:10:54;;;;;;;5.53;2.40;;;1.00;99.90;;;;;;4959434;28;20072;-84
2021/01/29 07:13:51;;;;;;;7.45;2.80;;;1.10;99.90;;;;;;4957134;28;20513;-79
2021/01/29 07:16:25;;;;;;;5.90;2.67;;;1.20;99.90;;;;;;4967741;28;20027;-77
2021/01/29 07:19:18;;;;;;;10.18;2.50;;;1.20;99.90;;;;;;4967254;28;20031;-79
2021/01/29 07:22:13;;;;;;;7.05;2.38;;;1.20;99.90;;;;;;4966326;28;20430;-82
2021/01/29 07:25:06;;;;;;;4.40;2.08;;;1.20;99.90;;;;;;4963333;28;20061;-85
2021/01/29 07:27:54;;;;;;;8.70;2.65;;;1.20;99.90;;;;;;4971626;28;20381;-79
2021/01/29 07:30:45;;;;;;;3.30;1.73;;;1.20;99.90;;;;;;4975150;28;20026;-85
2021/01/29 07:33:36;;;;;;;9.45;2.40;;;1.20;99.90;;;;;;4975543;28;20035;-83
2021/01/29 07:36:20;;;;;;;4.72;2.03;;;1.20;99.90;;;;;;4969084;28;20487;-84
2021/01/29 07:39:16;;;;;;;7.03;2.45;;;1.30;99.90;;;;;;4970232;28;20119;-82
2021/01/29 07:42:16;;;;;;;4.07;2.08;;;1.30;99.90;;;;;;4975099;28;20038;-82
2021/01/29 07:45:02;;;;;;;4.10;2.03;;;1.30;99.90;;;;;;4978601;28;20045;-80
2021/01/29 07:48:05;;;;;;;4.38;1.70;;;1.30;99.90;;;;;;4969875;28;20046;-81
2021/01/29 07:50:48;;;;;;;17.00;2.30;;;1.20;99.90;;;;;;4963007;28;20031;-82
2021/01/29 07:53:30;;;;;;;3.08;1.90;;;1.30;99.90;;;;;;4964319;28;20027;-81
2021/01/29 07:56:23;;;;;;;3.20;1.98;;;1.30;99.90;;;;;;4959612;28;20030;-79
2021/01/29 07:59:04;;;;;;;4.55;1.70;;;1.40;99.90;;;;;;4971990;28;20145;-75
2021/01/29 08:01:53;;;;;;;4.32;1.73;;;1.30;99.90;;;;;;4961838;28;20038;-83
2021/01/29 08:04:49;;;;;;;4.18;1.80;;;1.30;99.90;;;;;;4968335;28;20038;-80
2021/01/29 08:07:24;;;;;;;5.97;1.60;;;1.20;99.90;;;;;;4966681;28;20039;-75
2021/01/29 08:09:59;;;;;;;3.00;1.67;;;1.30;99.90;;;;;;4962387;28;20034;-80
2021/01/29 08:12:27;;;;;;;7.05;2.03;;;1.40;99.90;;;;;;4960230;28;20027;-79
2021/01/29 08:15:01;;;;;;;5.50;2.85;;;1.40;99.90;;;;;;4960359;28;20027;-79
2021/01/29 08:17:58;;;;;;;7.63;2.90;;;1.50;99.90;;;;;;4967477;28;20034;-82
2021/01/29 08:20:45;;;;;;;5.03;2.30;;;1.50;99.90;;;;;;4967674;28;20421;-74
2021/01/29 08:23:37;;;;;;;4.22;2.78;;;1.60;99.90;;;;;;4964118;28;20045;-76
2021/01/29 08:26:24;;;;;;;7.45;2.60;;;1.60;99.90;;;;;;4963751;28;20050;-73
2021/01/29 08:29:24;;;;;;;6.13;2.53;;;1.70;99.90;;;;;;4965224;28;20039;-74
2021/01/29 08:32:11;;;;;;;4.45;2.30;;;1.80;99.90;;;;;;4964603;28;21892;-74
2021/01/29 08:35:07;;;;;;;10.18;2.50;;;1.80;99.90;;;;;;4970379;28;20046;-75
2021/01/29 08:37:58;;;;;;;5.65;2.30;;;1.90;99.90;;;;;;4973112;28;20022;-75
2021/01/29 08:40:32;;;;;;;7.90;2.17;;;1.90;99.90;;;;;;4975358;28;20481;-75
2021/01/29 08:43:18;;;;;;;6.65;2.00;;;1.90;99.90;;;;;;4969875;28;20111;-75
2021/01/29 08:45:59;;;;;;;5.72;1.95;;;1.90;99.90;;;;;;4967847;28;20418;-74
2021/01/29 08:48:30;;;;;;;10.00;2.53;;;1.90;99.90;;;;;;4958093;28;20037;-74
2021/01/29 08:51:23;;;;;;;6.90;2.33;;;1.90;99.90;;;;;;4961408;28;20042;-75
2021/01/29 08:53:48;;;;;;;4.55;2.20;;;2.10;99.90;;;;;;4965281;28;20054;-75
2021/01/29 08:56:28;;;;;;;3.08;1.70;;;2.10;99.90;;;;;;4969750;28;20026;-75
2021/01/29 08:59:07;;;;;;;8.60;1.90;;;2.10;99.90;;;;;;4961928;28;20033;-75
2021/01/29 09:02:10;;;;;;;6.70;1.90;;;2.00;99.90;;;;;;4967352;28;20125;-75
2021/01/29 09:04:50;;;;;;;3.42;1.95;;;2.10;99.90;;;;;;4969708;28;20451;-75
2021/01/29 09:07:20;;;;;;;4.85;1.95;;;2.10;99.90;;;;;;4957437;28;20378;-74
2021/01/29 09:09:47;;;;;;;6.47;2.10;;;2.30;99.90;;;;;;4969192;28;20035;-75
2021/01/29 09:12:27;;;;;;;6.22;2.50;;;2.30;99.90;;;;;;4969183;28;20027;-75
2021/01/29 09:15:24;;;;;;;7.93;2.07;;;2.40;99.90;;;;;;4969804;28;20034;-74
2021/01/29 09:18:03;;;;;;;3.90;2.35;;;2.40;99.90;;;;;;4968039;28;20274;-74
2021/01/29 09:20:41;;;;;;;5.53;1.95;;;2.50;99.90;;;;;;4964989;28;20042;-82
2021/01/29 09:23:20;;;;;;;5.43;2.20;;;2.50;99.90;;;;;;4966404;28;20031;-82
2021/01/29 09:25:58;;;;;;;4.80;2.28;;;2.50;99.90;;;;;;4965375;28;20042;-82
2021/01/29 09:28:36;;;;;;;7.13;2.10;;;2.50;99.60;;;;;;4963738;28;20050;-82
2021/01/29 09:31:10;;;;;;;3.97;1.70;;;2.30;99.30;;;;;;4963785;28;20031;-82
2021/01/29 09:34:09;;;;;;;6.60;2.30;;;2.30;99.50;;;;;;4962981;28;20494;-82
2021/01/29 09:36:40;;;;;;;5.38;2.38;;;2.30;99.70;;;;;;4963724;28;20601;-82
2021/01/29 09:39:19;;;;;;;4.40;1.92;;;2.40;99.90;;;;;;4964859;28;20493;-83
2021/01/29 09:42:02;;;;;;;8.40;2.13;;;2.50;99.30;;;;;;4964075;28;20054;-83
2021/01/29 09:44:52;;;;;;;7.03;2.35;;;2.30;98.90;;;;;;4964587;28;20294;-82
2021/01/29 09:47:21;;;;;;;4.32;2.40;;;2.30;99.50;;;;;;4963780;28;20042;-82
2021/01/29 09:50:03;;;;;;;6.72;2.55;;;2.30;98.60;;;;;;4963822;28;20328;-83
2021/01/29 09:52:56;;;;;;;7.63;2.40;;;2.40;98.40;;;;;;4957818;28;20028;-81
2021/01/29 09:55:28;;;;;;;6.07;2.17;;;2.40;98.50;;;;;;4969014;28;20039;-82
2021/01/29 09:58:12;;;;;;;8.07;2.50;;;2.30;98.70;;;;;;4964518;28;20042;-84
2021/01/29 10:00:40;;;;;;;4.70;2.03;;;2.30;98.50;;;;;;4964418;28;20756;-83
2021/01/29 10:03:33;;;;;;;7.78;3.03;;;2.40;99.10;;;;;;4963482;28;20019;-83
2021/01/29 10:06:23;;;;;;;3.78;2.42;;;2.30;98.50;;;;;;4972846;28;20030;-83
2021/01/29 10:08:54;;;;;;;3.58;2.40;;;2.30;98.70;;;;;;4969603;28;20035;-82
2021/01/29 10:11:29;;;;;;;5.30;2.58;;;2.40;98.60;;;;;;4968683;28;20453;-82
2021/01/29 10:14:29;;;;;;;5.78;2.70;;;2.60;98.50;;;;;;4960973;28;20483;-82
2021/01/29 10:17:03;;;;;;;5.72;2.75;;;2.80;98.20;;;;;;4964727;28;20158;-82
2021/01/29 10:19:41;;;;;;;7.50;3.30;;;3.00;97.90;;;;;;4966321;28;20026;-83
2021/01/29 10:22:32;;;;;;;6.60;2.97;;;3.00;97.20;;;;;;4967711;28;20026;-83
2021/01/29 10:25:18;;;;;;;8.48;2.95;;;3.20;96.70;;;;;;4965736;28;20042;-82
2021/01/29 10:28:10;;;;;;;5.78;2.47;;;3.40;96.50;;;;;;4961229;28;20027;-82
2021/01/29 10:30:44;;;;;;;4.60;2.10;;;3.40;95.10;;;;;;4965593;28;20043;-82
2021/01/29 10:33:20;;;;;;;7.03;2.58;;;3.40;94.50;;;;;;4966166;28;20038;-82
2021/01/29 10:35:59;;;;;;;5.70;2.30;;;3.50;94.50;;;;;;4969817;28;20565;-82
2021/01/29 10:38:39;;;;;;;5.60;2.13;;;3.60;94.60;;;;;;4959032;28;20030;-82
2021/01/29 10:41:29;;;;;;;4.40;2.42;;;3.60;94.00;;;;;;4968674;28;20035;-81
2021/01/29 10:44:09;;;;;;;7.30;2.45;;;3.60;93.70;;;;;;4953730;28;20063;-82
2021/01/29 10:46:56;;;;;;;3.78;2.00;;;3.60;93.20;;;;;;4956257;28;20042;-82
2021/01/29 10:49:38;;;;;;;7.20;2.90;;;3.80;93.00;;;;;;4971539;28;20088;-81
2021/01/29 10:52:33;;;;;;;7.13;2.05;;;3.70;92.70;;;;;;4972012;28;20401;-82
2021/01/29 10:55:15;;;;;;;4.82;1.73;;;3.80;92.50;;;;;;4971994;28;20030;-82
2021/01/29 10:57:56;;;;;;;5.50;2.40;;;3.90;91.20;;;;;;4964991;28;20037;-82
2021/01/29 11:00:26;;;;;;;4.15;2.03;;;4.00;90.50;;;;;;4957301;28;20110;-82
2021/01/29 11:03:07;;;;;;;3.67;2.03;;;4.00;90.90;;;;;;4966023;28;20039;-82
2021/01/29 11:05:37;;;;;;;5.65;2.85;;;4.00;91.20;;;;;;4967998;28;20029;-82
2021/01/29 11:08:20;;;;;;;7.20;2.30;;;4.10;90.80;;;;;;4967519;28;20122;-82
2021/01/29 11:10:57;;;;;;;2.75;1.80;;;4.10;88.90;;;;;;4962349;28;20438;-82
2021/01/29 11:13:46;;;;;;;3.60;2.42;;;4.00;90.00;;;;;;4955782;28;20438;-82
2021/01/29 11:16:15;;;;;;;4.22;2.33;;;3.80;88.60;;;;;;4964414;28;20125;-83
2021/01/29 11:18:42;;;;;;;4.57;2.13;;;3.70;88.50;;;;;;4970318;28;20030;-83
2021/01/29 11:21:26;;;;;;;5.95;2.80;;;3.60;88.80;;;;;;4968493;28;20033;-82
2021/01/29 11:24:12;;;;;;;7.15;3.05;;;3.60;89.70;;;;;;4964115;28;20509;-81
2021/01/29 11:27:06;;;;;;;7.55;2.47;;;3.70;89.90;;;;;;4968492;28;20038;-82
2021/01/29 11:29:38;;;;;;;9.68;4.32;;;3.80;90.20;;;;;;4958439;28;20026;-82
2021/01/29 11:32:35;;;;;;;11.13;2.95;;;4.10;90.50;;;;;;4962349;28;20289;-83
2021/01/29 11:35:17;;;;;;;5.68;2.53;;;4.20;91.00;;;;;;4979768;28;20026;-82
2021/01/29 11:38:00;;;;;;;7.22;2.38;;;4.20;90.50;;;;;;4977422;28;20026;-82
2021/01/29 11:40:59;;;;;;;4.43;2.70;;;4.10;90.60;;;;;;4976751;28;20027;-82
2021/01/29 11:43:56;;;;;;;5.38;2.65;;;4.20;91.20;;;;;;4963226;28;20141;-82
2021/01/29 11:46:30;;;;;;;8.27;2.55;;;4.20;90.70;;;;;;4962897;28;20042;-82
2021/01/29 11:48:57;;;;;;;4.32;2.65;;;4.20;90.70;;;;;;4965378;28;20030;-82
2021/01/29 11:51:54;;;;;;;7.47;2.30;;;4.20;90.40;;;;;;4966426;28;20073;-82
2021/01/29 11:54:44;;;;;;;5.35;2.25;;;4.20;90.10;;;;;;4981446;28;20033;-83
2021/01/29 11:57:20;;;;;;;4.28;2.67;;;4.50;90.30;;;;;;4971446;28;20026;-82
2021/01/29 12:00:10;;;;;;;5.93;2.50;;;4.50;90.30;;;;;;4970143;28;20046;-81
2021/01/29 12:02:57;;;;;;;5.28;2.70;;;4.60;88.40;;;;;;4959814;28;20039;-82
2021/01/29 12:05:25;;;;;;;6.45;2.38;;;4.60;89.10;;;;;;4967849;28;20037;-81
2021/01/29 12:08:06;;;;;;;5.53;2.53;;;4.60;88.20;;;;;;4968434;28;20037;-82
2021/01/29 12:10:51;;;;;;;7.03;2.90;;;4.60;89.30;;;;;;4965334;28;20622;-81
2021/01/29 12:13:22;;;;;;;3.72;2.42;;;4.50;88.90;;;;;;4973886;28;20058;-81
2021/01/29 12:15:57;;;;;;;5.85;2.40;;;4.30;89.70;;;;;;4973442;28;20031;-80
2021/01/29 12:18:25;;;;;;;4.47;2.63;;;4.00;90.00;;;;;;4962418;28;20066;-80
2021/01/29 12:21:22;;;;;;;9.02;3.28;;;4.00;90.60;;;;;;4960908;28;20027;-81
2021/01/29 12:24:19;;;;;;;5.82;2.63;;;4.10;90.40;;;;;;4964593;28;20043;-82
2021/01/29 12:27:15;;;;;;;5.35;2.50;;;4.10;90.00;;;;;;4965024;28;20305;-82
2021/01/29 12:29:51;;;;;;;7.25;2.47;;;4.10;89.50;;;;;;4962426;28;20073;-82
2021/01/29 12:32:22;;;;;;;3.03;2.17;;;4.00;88.70;;;;;;4966915;28;20023;-82
2021/01/29 12:34:58;;;;;;;5.90;2.83;;;4.00;89.70;;;;;;4969782;28;20027;-82
2021/01/29 12:37:30;;;;;;;7.90;2.60;;;3.90;90.00;;;;;;4965332;28;20042;-81
2021/01/29 12:40:00;;;;;;;7.50;2.20;;;3.70;89.20;;;;;;4968480;28;20023;-81
2021/01/29 12:42:39;;;;;;;5.38;2.30;;;3.60;89.50;;;;;;4966282;28;20130;-81
2021/01/29 12:45:09;;;;;;;6.25;2.20;;;3.70;90.50;;;;;;4961076;28;20027;-82
2021/01/29 12:47:55;;;;;;;11.52;3.22;;;3.80;90.20;;;;;;4967057;28;20125;-81
2021/01/29 12:50:56;;;;;;;6.22;3.15;;;3.80;90.70;;;;;;4965016;28;20050;-81
2021/01/29 12:54:00;;;;;;;4.55;2.80;;;3.80;90.80;;;;;;4961389;28;20038;-81
2021/01/29 12:56:38;;;;;;;5.50;2.70;;;3.70;90.90;;;;;;4961438;28;20078;-81
2021/01/29 12:59:08;;;;;;;6.72;2.20;;;3.50;91.00;;;;;;4963262;28;20090;-80
2021/01/29 13:01:33;;;;;;;4.97;2.40;;;3.40;90.40;;;;;;4961658;28;20078;-81
2021/01/29 13:04:05;;;;;;;3.83;2.13;;;3.50;90.60;;;;;;4969412;28;20450;-81
2021/01/29 13:06:38;;;;;;;5.85;2.40;;;3.50;90.40;;;;;;4955678;28;20039;-81
2021/01/29 13:09:28;;;;;;;4.25;2.47;;;3.50;91.30;;;;;;4962556;28;20019;-82
2021/01/29 13:12:10;;;;;;;4.05;2.55;;;3.60;92.30;;;;;;4964357;28;20485;-82
2021/01/29 13:15:02;;;;;;;5.43;2.03;;;3.40;92.70;;;;;;4959256;28;20031;-81
2021/01/29 13:17:32;;;;;;;5.03;2.50;;;3.40;92.70;;;;;;4960079;28;20023;-82
2021/01/29 13:20:23;;;;;;;5.05;2.60;;;3.20;93.90;;;;;;4960225;28;20394;-82
2021/01/29 13:22:52;;;;;;;6.30;2.63;;;3.20;94.20;;;;;;4963072;28;20466;-81
2021/01/29 13:25:27;;;;;;;4.15;2.17;;;3.20;93.40;;;;;;4960118;28;20299;-82
2021/01/29 13:28:12;;;;;;;6.07;2.15;;;3.20;93.30;;;;;;4965154;28;20389;-81
2021/01/29 13:30:39;;;;;;;10.63;2.85;;;3.20;93.20;;;;;;4962877;28;20589;-80
2021/01/29 13:33:14;;;;;;;7.93;3.95;;;3.20;93.00;;;;;;4966988;28;20038;-81
2021/01/29 13:35:40;;;;;;;11.15;4.93;;;3.40;93.10;;;;;;4966559;28;21525;-81
2021/01/29 13:38:27;;;;;;;20.55;9.35;;;3.30;93.80;;;;;;4962457;28;20401;-81
2021/01/29 13:40:53;;;;;;;12.57;4.28;;;3.40;93.40;;;;;;4959478;28;20066;-81
2021/01/29 13:43:29;;;;;;;5.78;2.72;;;3.40;92.70;;;;;;4959017;28;20058;-80
2021/01/29 13:46:01;;;;;;;5.88;2.40;;;3.30;92.70;;;;;;4964439;28;20143;-81
2021/01/29 13:48:27;;;;;;;4.57;1.95;;;3.30;92.20;;;;;;4966105;28;20117;-81
2021/01/29 13:51:00;;;;;;;3.28;2.30;;;3.20;92.20;;;;;;4965243;28;20454;-81
2021/01/29 13:53:29;;;;;;;3.45;2.05;;;3.10;92.40;;;;;;4966074;28;20046;-81
2021/01/29 13:56:16;;;;;;;3.95;2.03;;;3.00;91.90;;;;;;4968963;28;20500;-81
2021/01/29 13:58:49;;;;;;;6.80;2.88;;;3.10;92.10;;;;;;4965920;28;20035;-81
2021/01/29 14:01:52;;;;;;;3.40;2.22;;;3.00;92.50;;;;;;4969343;28;20105;-81
2021/01/29 14:04:31;;;;;;;3.78;2.28;;;3.00;92.40;;;;;;4963896;28;20038;-81
2021/01/29 14:06:56;;;;;;;4.72;2.20;;;3.00;92.80;;;;;;4960434;28;20030;-81